Sutherlin, Virginia
Current Conditions -  °F | °C
As of 8:17 PM on Sunday 23 Nov 2014 (Local Time) from KDAN Reporting Station
Light Rain Light Rain  
Wind Chill: 46°   Ceiling: 300
Heat Index: 49°   Visibility: 2mi
Dew Point: 47°   Wind: 7mph
Humidity: 93%   Direction: 80°E
Pressure: 29.86"   Gusts: NA
Location:  36.63°N, 79.21°W
Report Text: KDAN 240117Z AUTO 08006KT 2SM -RA BR OVC003 09/08 A2986 RMK AO2 P0005 T00940083
Loading
Personal Weather Stations






























Interactive Weather Map New forecast layout! Learn more

10-Day Weather Forecast

Advertisements
Track Severe Weather on mobile